createdAt,value
2023-04-26T00:00:13.624Z,3.85
2023-04-26T00:02:45.709Z,2.40
2023-04-26T00:05:14.773Z,3.97
2023-04-26T00:08:18.027Z,4.50
2023-04-26T00:10:51.731Z,3.85
2023-04-26T00:13:32.860Z,2.75
2023-04-26T00:16:04.253Z,5.50
2023-04-26T00:18:34.527Z,3.97
2023-04-26T00:21:06.684Z,4.00
2023-04-26T00:23:38.993Z,2.90
2023-04-26T00:26:17.796Z,6.95
2023-04-26T00:28:45.598Z,2.53
2023-04-26T00:31:18.007Z,3.88
2023-04-26T00:33:45.659Z,3.15
2023-04-26T00:36:14.491Z,4.05
2023-04-26T00:38:53.317Z,4.70
2023-04-26T00:41:22.696Z,3.75
2023-04-26T00:43:50.084Z,4.30
2023-04-26T00:46:21.054Z,2.08
2023-04-26T00:51:40.863Z,3.75
2023-04-26T00:54:11.739Z,4.05
2023-04-26T00:57:03.483Z,3.30
2023-04-26T00:59:37.600Z,5.03
2023-04-26T01:02:13.768Z,5.93
2023-04-26T01:04:46.023Z,3.67
2023-04-26T01:07:18.823Z,4.80
2023-04-26T01:10:03.665Z,4.53
2023-04-26T01:15:29.952Z,4.20
2023-04-26T01:18:05.775Z,5.30
2023-04-26T01:20:36.269Z,4.75
2023-04-26T01:23:09.465Z,3.80
2023-04-26T01:25:42.771Z,2.88
2023-04-26T01:28:17.972Z,4.72
2023-04-26T01:30:47.655Z,2.55
2023-04-26T01:33:23.216Z,3.88
2023-04-26T01:35:54.082Z,3.17
2023-04-26T01:38:26.390Z,2.10
2023-04-26T01:40:56.391Z,7.57
2023-04-26T01:43:33.602Z,6.28
2023-04-26T01:46:04.205Z,3.45
2023-04-26T01:48:36.598Z,3.92
2023-04-26T01:51:04.956Z,3.50
2023-04-26T01:53:32.945Z,4.05
2023-04-26T01:56:11.908Z,3.08
2023-04-26T01:58:42.650Z,5.72
2023-04-26T02:01:12.415Z,8.50
2023-04-26T02:03:45.878Z,5.40
2023-04-26T02:06:39.431Z,5.07
2023-04-26T02:09:23.912Z,4.95
2023-04-26T02:11:54.931Z,6.13
2023-04-26T02:14:22.612Z,8.35
2023-04-26T02:16:52.422Z,8.85
2023-04-26T02:19:23.560Z,7.72
2023-04-26T02:22:03.807Z,10.43
2023-04-26T02:24:36.546Z,6.75
2023-04-26T02:27:13.589Z,5.45
2023-04-26T02:29:59.513Z,6.35
2023-04-26T02:32:27.371Z,7.22
2023-04-26T02:34:58.924Z,4.43
2023-04-26T02:37:31.910Z,5.45
2023-04-26T02:40:09.426Z,5.38
2023-04-26T02:42:42.839Z,8.02
2023-04-26T02:45:11.134Z,6.55
2023-04-26T02:47:45.727Z,5.50
2023-04-26T02:50:13.323Z,4.47
2023-04-26T02:52:50.343Z,6.47
2023-04-26T02:55:20.263Z,5.63
2023-04-26T02:58:02.737Z,3.58
2023-04-26T03:00:40.684Z,4.18
2023-04-26T03:03:18.598Z,5.35
2023-04-26T03:05:56.079Z,6.18
2023-04-26T03:08:41.926Z,5.90
2023-04-26T03:11:11.847Z,3.65
2023-04-26T03:13:48.009Z,4.45
2023-04-26T03:16:20.102Z,3.38
2023-04-26T03:18:56.165Z,3.40
2023-04-26T03:21:39.966Z,3.55
2023-04-26T03:24:07.888Z,5.25
2023-04-26T03:26:44.911Z,6.05
2023-04-26T03:29:14.952Z,4.60
2023-04-26T03:31:45.830Z,4.78
2023-04-26T03:34:16.651Z,8.60
2023-04-26T03:36:44.684Z,8.55
2023-04-26T03:39:12.672Z,8.48
2023-04-26T03:41:45.526Z,5.22
2023-04-26T03:44:14.458Z,5.15
2023-04-26T03:46:49.354Z,5.40
2023-04-26T03:49:21.559Z,6.40
2023-04-26T03:52:08.684Z,6.35
2023-04-26T03:54:36.553Z,4.68
2023-04-26T03:57:06.802Z,4.45
2023-04-26T03:59:43.890Z,4.35
2023-04-26T04:02:15.379Z,6.38
2023-04-26T04:05:11.586Z,5.40
2023-04-26T04:07:39.379Z,6.25
2023-04-26T04:10:21.284Z,7.28
2023-04-26T04:12:53.347Z,8.48
2023-04-26T04:15:41.309Z,4.75
2023-04-26T04:18:15.017Z,6.68
2023-04-26T04:20:52.862Z,6.35
2023-04-26T04:23:30.931Z,4.40
2023-04-26T04:25:58.925Z,6.00
2023-04-26T04:29:11.623Z,7.88
2023-04-26T04:31:37.571Z,9.48
2023-04-26T04:34:05.921Z,6.40
2023-04-26T04:36:36.059Z,5.57
2023-04-26T04:39:20.965Z,5.90
2023-04-26T04:41:54.257Z,10.00
2023-04-26T04:44:26.473Z,7.10
2023-04-26T04:46:57.573Z,8.63
2023-04-26T04:49:30.812Z,7.47
2023-04-26T04:52:06.825Z,7.68
2023-04-26T04:54:54.491Z,7.72
2023-04-26T04:57:25.978Z,22.35
2023-04-26T04:59:58.412Z,19.05
2023-04-26T05:02:36.151Z,19.08
2023-04-26T05:05:10.561Z,10.10
2023-04-26T05:07:40.564Z,5.93
2023-04-26T05:10:11.835Z,8.18
2023-04-26T05:12:59.646Z,7.47
2023-04-26T05:15:29.161Z,7.03
2023-04-26T05:18:19.590Z,10.30
2023-04-26T05:20:59.301Z,7.75
2023-04-26T05:23:31.038Z,9.40
2023-04-26T05:26:16.304Z,14.43
2023-04-26T05:28:49.654Z,9.02
2023-04-26T05:31:37.986Z,10.18
2023-04-26T05:34:08.338Z,6.95
2023-04-26T05:40:05.640Z,10.10
2023-04-26T05:43:01.281Z,11.68
2023-04-26T05:45:32.746Z,10.90
2023-04-26T05:48:18.710Z,9.52
2023-04-26T05:51:08.759Z,7.50
2023-04-26T05:53:57.997Z,7.15
2023-04-26T05:56:51.204Z,13.20
2023-04-26T05:59:23.253Z,9.48
2023-04-26T06:02:02.212Z,10.95
2023-04-26T06:07:47.990Z,6.00
2023-04-26T06:10:39.868Z,10.07
2023-04-26T06:13:17.513Z,10.00
2023-04-26T06:16:20.072Z,10.02
2023-04-26T06:22:01.319Z,12.20
2023-04-26T06:30:50.403Z,9.15
2023-04-26T06:33:42.506Z,12.43
2023-04-26T06:36:38.607Z,9.35
2023-04-26T06:39:42.362Z,9.05
2023-04-26T06:42:20.312Z,8.48
2023-04-26T06:48:41.976Z,10.60
2023-04-26T06:54:14.383Z,5.70
2023-04-26T07:03:36.960Z,8.13
2023-04-26T07:06:44.033Z,10.27
2023-04-26T07:09:43.388Z,7.43
2023-04-26T07:19:44.516Z,8.63
2023-04-26T07:22:41.803Z,9.20
2023-04-26T07:25:52.370Z,7.55
2023-04-26T07:36:13.742Z,10.07
2023-04-26T07:38:57.644Z,13.80
2023-04-26T07:41:59.874Z,7.38
2023-04-26T07:44:57.612Z,12.15
2023-04-26T07:51:02.546Z,11.18
2023-04-26T07:53:59.367Z,10.85
2023-04-26T07:56:39.393Z,11.52
2023-04-26T07:59:34.817Z,7.70
2023-04-26T08:02:15.264Z,8.15
2023-04-26T08:06:10.284Z,12.48
2023-04-26T08:09:01.759Z,11.07
2023-04-26T08:11:37.388Z,11.23
2023-04-26T08:14:37.005Z,7.38
2023-04-26T08:17:55.414Z,11.80
2023-04-26T08:21:53.085Z,10.10
2023-04-26T08:24:36.269Z,10.02
2023-04-26T08:28:11.673Z,23.13
2023-04-26T08:31:17.787Z,9.27
2023-04-26T08:33:53.014Z,8.43
2023-04-26T08:36:43.560Z,13.70
2023-04-26T08:39:47.276Z,8.70
2023-04-26T08:44:04.531Z,8.52
2023-04-26T08:46:27.326Z,8.75
2023-04-26T08:49:54.457Z,10.32
2023-04-26T08:52:38.450Z,8.65
2023-04-26T08:56:30.235Z,9.40
2023-04-26T08:59:21.119Z,10.27
2023-04-26T09:05:54.913Z,13.52
2023-04-26T09:08:37.285Z,7.70
2023-04-26T09:11:48.351Z,9.63
2023-04-26T09:17:49.986Z,8.30
2023-04-26T09:21:10.771Z,8.65
2023-04-26T09:24:16.948Z,7.00
2023-04-26T09:37:10.398Z,9.50
2023-04-26T09:40:19.803Z,8.75
2023-04-26T09:47:15.064Z,11.00
2023-04-26T09:50:06.841Z,9.07
2023-04-26T09:52:47.237Z,13.98
2023-04-26T09:55:55.132Z,7.32
2023-04-26T10:02:54.474Z,7.55
2023-04-26T10:20:08.351Z,11.50
2023-04-26T10:22:52.129Z,11.88
2023-04-26T10:25:56.412Z,13.30
2023-04-26T10:28:58.979Z,9.45
2023-04-26T10:32:32.034Z,11.13
2023-04-26T10:39:38.950Z,20.00
2023-04-26T10:42:42.326Z,13.48
2023-04-26T10:46:09.275Z,29.67
2023-04-26T10:48:52.845Z,16.27
2023-04-26T10:54:58.425Z,11.63
2023-04-26T10:58:00.927Z,11.00
2023-04-26T11:02:06.658Z,12.50
2023-04-26T11:04:31.906Z,12.88
2023-04-26T11:07:41.103Z,12.07
2023-04-26T11:13:34.018Z,8.65
2023-04-26T11:16:38.820Z,8.55
2023-04-26T11:35:31.202Z,11.93
2023-04-26T11:38:51.741Z,11.77
2023-04-26T11:41:38.179Z,10.05
2023-04-26T11:44:42.256Z,12.15
2023-04-26T11:47:49.005Z,7.72
2023-04-26T11:50:24.296Z,11.05
2023-04-26T11:53:07.509Z,13.25
2023-04-26T12:02:50.597Z,13.20
2023-04-26T12:09:13.204Z,9.82
2023-04-26T12:15:09.148Z,10.18
2023-04-26T12:21:31.460Z,7.50
2023-04-26T12:24:51.408Z,5.43
2023-04-26T12:27:45.789Z,7.40
2023-04-26T12:30:30.349Z,3.35
2023-04-26T12:33:31.901Z,3.75
2023-04-26T12:39:49.057Z,7.38
2023-04-26T12:42:48.676Z,7.82
2023-04-26T12:46:38.770Z,4.75
2023-04-26T12:57:03.751Z,8.07
2023-04-26T12:59:53.898Z,7.55
2023-04-26T13:06:11.838Z,7.00
2023-04-26T13:09:23.407Z,8.48
2023-04-26T13:12:24.480Z,8.00
2023-04-26T13:15:32.773Z,5.85
2023-04-26T13:18:50.273Z,9.25
2023-04-26T13:21:45.077Z,7.10
2023-04-26T13:25:45.995Z,7.05
2023-04-26T13:28:01.055Z,5.20
2023-04-26T13:31:08.252Z,4.88
2023-04-26T13:34:30.655Z,7.05
2023-04-26T13:44:11.652Z,7.18
2023-04-26T13:46:43.687Z,7.65
2023-04-26T13:49:38.361Z,8.73
2023-04-26T13:59:11.593Z,6.45
2023-04-26T14:02:35.894Z,6.25
2023-04-26T14:13:33.011Z,4.82
2023-04-26T14:21:13.950Z,11.68
2023-04-26T14:25:25.492Z,6.07
2023-04-26T14:27:41.839Z,4.63
2023-04-26T14:30:46.756Z,5.88
2023-04-26T14:33:45.099Z,5.30
2023-04-26T14:40:05.675Z,5.05
2023-04-26T14:42:52.191Z,6.60
2023-04-26T14:45:42.875Z,7.10
2023-04-26T14:48:56.013Z,4.88
2023-04-26T14:51:54.248Z,4.45
2023-04-26T14:54:22.993Z,8.98
2023-04-26T14:57:35.487Z,4.38
2023-04-26T15:00:18.261Z,5.18
2023-04-26T15:06:13.596Z,5.45
2023-04-26T15:08:54.810Z,4.25
2023-04-26T15:11:47.135Z,4.95
2023-04-26T15:14:25.704Z,5.07
2023-04-26T15:17:16.906Z,4.68
2023-04-26T15:19:55.135Z,4.68
2023-04-26T15:28:25.308Z,6.32
2023-04-26T15:31:18.009Z,6.45
2023-04-26T15:33:55.600Z,5.45
2023-04-26T15:36:42.045Z,4.20
2023-04-26T15:39:41.159Z,7.97
2023-04-26T15:42:22.729Z,6.13
2023-04-26T15:45:05.433Z,7.65
2023-04-26T15:48:06.257Z,7.47
2023-04-26T15:51:38.183Z,7.45
2023-04-26T15:54:01.961Z,4.53
2023-04-26T15:56:47.627Z,7.97
2023-04-26T15:59:46.700Z,8.60
2023-04-26T16:03:00.114Z,6.20
2023-04-26T16:06:23.587Z,11.65
2023-04-26T16:09:02.316Z,11.60
2023-04-26T16:11:48.368Z,10.48
2023-04-26T16:14:51.036Z,9.40
2023-04-26T16:17:26.484Z,11.00
2023-04-26T16:20:10.827Z,8.13
2023-04-26T16:26:59.009Z,10.20
2023-04-26T16:29:35.767Z,9.70
2023-04-26T16:32:43.505Z,10.20
2023-04-26T16:35:44.405Z,9.32
2023-04-26T16:38:22.943Z,11.70
2023-04-26T16:41:45.801Z,11.77
2023-04-26T16:44:24.809Z,11.05
2023-04-26T16:47:33.148Z,7.30
2023-04-26T16:50:15.528Z,11.82
2023-04-26T16:52:48.428Z,9.27
2023-04-26T16:55:17.927Z,7.85
2023-04-26T16:57:51.410Z,10.45
2023-04-26T17:00:34.956Z,7.57
2023-04-26T17:03:12.525Z,10.40
2023-04-26T17:05:56.026Z,8.77
2023-04-26T17:11:26.239Z,9.18
2023-04-26T17:14:12.016Z,6.70
2023-04-26T17:16:52.191Z,9.82
2023-04-26T17:19:44.941Z,13.50
2023-04-26T17:22:26.895Z,9.18
2023-04-26T17:25:26.716Z,10.18
2023-04-26T17:27:59.703Z,10.85
2023-04-26T17:30:32.580Z,11.48
2023-04-26T17:33:12.718Z,11.63
2023-04-26T17:35:49.999Z,10.68
2023-04-26T17:38:49.097Z,7.50
2023-04-26T17:41:17.886Z,14.40
2023-04-26T17:43:56.112Z,8.05
2023-04-26T17:46:26.798Z,9.90
2023-04-26T17:48:57.335Z,14.38
2023-04-26T17:51:28.353Z,10.00
2023-04-26T17:53:56.589Z,12.48
2023-04-26T17:56:26.708Z,8.43
2023-04-26T17:59:00.381Z,8.98
2023-04-26T18:01:28.442Z,10.10
2023-04-26T18:03:58.027Z,9.48
2023-04-26T18:06:27.665Z,12.77
2023-04-26T18:08:55.327Z,7.03
2023-04-26T18:11:27.555Z,10.40
2023-04-26T18:13:57.997Z,9.77
2023-04-26T18:16:29.910Z,11.85
2023-04-26T18:19:25.485Z,10.55
2023-04-26T18:22:01.980Z,11.10
2023-04-26T18:24:32.256Z,9.45
2023-04-26T18:27:06.347Z,13.65
2023-04-26T18:29:35.085Z,12.23
2023-04-26T18:32:11.010Z,9.88
2023-04-26T18:34:49.046Z,34.03
2023-04-26T18:37:29.598Z,25.33
2023-04-26T18:40:05.207Z,11.77
2023-04-26T18:42:35.874Z,11.30
2023-04-26T18:45:03.658Z,12.20
2023-04-26T18:47:48.033Z,9.35
2023-04-26T18:50:18.747Z,10.35
2023-04-26T18:52:46.986Z,12.07
2023-04-26T18:55:14.816Z,11.40
2023-04-26T18:57:54.960Z,11.80
2023-04-26T19:00:22.800Z,11.18
2023-04-26T19:02:56.192Z,9.05
2023-04-26T19:05:23.968Z,9.48
2023-04-26T19:07:54.730Z,12.35
2023-04-26T19:10:57.328Z,9.20
2023-04-26T19:13:23.750Z,8.63
2023-04-26T19:16:07.524Z,7.88
2023-04-26T19:19:15.360Z,10.40
2023-04-26T19:21:43.502Z,7.32
2023-04-26T19:24:11.112Z,7.72
2023-04-26T19:26:51.099Z,8.38
2023-04-26T19:29:20.353Z,6.57
2023-04-26T19:32:08.253Z,6.95
2023-04-26T19:34:39.139Z,7.03
2023-04-26T19:37:13.111Z,10.15
2023-04-26T19:39:41.224Z,7.43
2023-04-26T19:42:48.596Z,8.90
2023-04-26T19:45:29.820Z,6.38
2023-04-26T19:48:00.211Z,6.38
2023-04-26T19:50:31.107Z,7.82
2023-04-26T19:53:00.996Z,7.93
2023-04-26T19:56:00.730Z,6.95
2023-04-26T19:58:27.176Z,3.92
2023-04-26T20:01:19.429Z,5.95
2023-04-26T20:04:02.751Z,4.95
2023-04-26T20:06:33.196Z,4.00
2023-04-26T20:09:04.496Z,5.80
2023-04-26T20:11:46.079Z,3.67
2023-04-26T20:14:16.663Z,9.07
2023-04-26T20:16:46.342Z,7.57
2023-04-26T20:19:18.543Z,8.00
2023-04-26T20:21:53.267Z,6.68
2023-04-26T20:24:28.423Z,5.88
2023-04-26T20:26:56.654Z,8.30
2023-04-26T20:29:27.164Z,6.57
2023-04-26T20:34:40.070Z,6.43
2023-04-26T20:37:15.196Z,5.32
2023-04-26T20:39:43.098Z,4.68
2023-04-26T20:42:10.675Z,5.50
2023-04-26T20:44:55.223Z,4.43
2023-04-26T20:47:26.290Z,8.35
2023-04-26T20:52:51.531Z,5.15
2023-04-26T20:55:23.109Z,4.78
2023-04-26T20:57:54.257Z,8.27
2023-04-26T21:00:24.387Z,5.30
2023-04-26T21:06:02.265Z,11.70
2023-04-26T21:08:37.053Z,10.80
2023-04-26T21:11:08.954Z,7.28
2023-04-26T21:16:27.075Z,5.50
2023-04-26T21:19:07.515Z,9.13
2023-04-26T21:21:37.710Z,6.30
2023-04-26T21:24:09.112Z,9.15
2023-04-26T21:26:49.242Z,5.63
2023-04-26T21:29:21.782Z,6.40
2023-04-26T21:31:49.775Z,4.07
2023-04-26T21:34:31.349Z,7.03
2023-04-26T21:37:11.613Z,9.00
2023-04-26T21:39:42.708Z,3.72
2023-04-26T21:42:14.708Z,5.05
2023-04-26T21:44:47.750Z,3.60
2023-04-26T21:47:15.556Z,5.53
2023-04-26T21:49:43.647Z,4.32
2023-04-26T21:52:11.771Z,6.65
2023-04-26T21:54:43.364Z,4.22
2023-04-26T22:02:28.397Z,5.53
2023-04-26T22:05:03.329Z,5.70
2023-04-26T22:07:34.259Z,3.20
2023-04-26T22:10:06.968Z,4.45
2023-04-26T22:12:44.941Z,5.18
2023-04-26T22:15:14.261Z,7.47
2023-04-26T22:18:04.960Z,3.75
2023-04-26T22:20:33.291Z,5.30
2023-04-26T22:23:12.227Z,3.47
2023-04-26T22:25:40.120Z,5.70
2023-04-26T22:28:14.642Z,3.42
2023-04-26T22:30:46.218Z,5.75
2023-04-26T22:35:45.085Z,6.40
2023-04-26T22:38:32.020Z,2.00
2023-04-26T22:41:16.889Z,4.75
2023-04-26T22:43:57.273Z,5.05
2023-04-26T22:46:29.652Z,7.95
2023-04-26T22:49:13.411Z,5.25
2023-04-26T22:51:57.289Z,6.50
2023-04-26T22:54:39.747Z,3.58
2023-04-26T22:57:11.369Z,3.03
2023-04-26T23:00:01.130Z,5.97
2023-04-26T23:03:13.536Z,4.03
2023-04-26T23:05:41.622Z,5.32
2023-04-26T23:08:11.733Z,5.97
2023-04-26T23:10:40.716Z,4.82
2023-04-26T23:13:11.246Z,5.95
2023-04-26T23:15:39.617Z,2.63
2023-04-26T23:18:07.539Z,5.68
2023-04-26T23:20:52.556Z,3.30
2023-04-26T23:23:31.014Z,5.50
2023-04-26T23:26:01.473Z,4.00
2023-04-26T23:28:29.452Z,4.63
2023-04-26T23:31:02.672Z,5.78
2023-04-26T23:33:37.587Z,5.20
2023-04-26T23:36:05.494Z,6.18
2023-04-26T23:38:34.856Z,5.05
2023-04-26T23:41:05.708Z,3.20
2023-04-26T23:43:34.018Z,5.53
2023-04-26T23:46:07.171Z,4.43
2023-04-26T23:48:36.076Z,4.70
2023-04-26T23:51:06.507Z,4.97
2023-04-26T23:53:44.448Z,5.07
2023-04-26T23:56:22.017Z,6.57
2023-04-26T23:58:52.470Z,7.40
